createdAt,value
2018-12-26T00:02:28.009Z,0.80
2018-12-26T00:04:58.230Z,0.73
2018-12-26T00:07:28.594Z,0.70
2018-12-26T00:09:58.892Z,0.56
2018-12-26T00:12:29.361Z,0.60
2018-12-26T00:14:59.758Z,0.65
2018-12-26T00:17:30.264Z,0.74
2018-12-26T00:20:00.704Z,0.76
2018-12-26T00:22:30.944Z,0.71
2018-12-26T00:25:01.533Z,0.60
2018-12-26T00:27:31.999Z,0.64
2018-12-26T00:30:02.215Z,0.65
2018-12-26T00:32:32.695Z,0.70
2018-12-26T00:35:02.905Z,0.76
2018-12-26T00:37:33.407Z,0.82
2018-12-26T00:40:06.367Z,0.84
2018-12-26T00:42:39.822Z,0.85
2018-12-26T00:45:10.274Z,0.83
2018-12-26T00:47:40.435Z,0.81
2018-12-26T00:50:11.819Z,0.72
2018-12-26T00:52:42.038Z,0.81
2018-12-26T00:55:12.202Z,0.84
2018-12-26T00:57:42.611Z,0.82
2018-12-26T01:00:13.232Z,0.77
2018-12-26T01:02:43.689Z,0.77
2018-12-26T01:05:13.934Z,0.76
2018-12-26T01:07:44.093Z,0.77
2018-12-26T01:10:14.788Z,0.68
2018-12-26T01:12:45.267Z,0.58
2018-12-26T01:15:15.547Z,0.68
2018-12-26T01:17:48.698Z,0.70
2018-12-26T01:20:19.069Z,0.64
2018-12-26T01:22:49.284Z,0.56
2018-12-26T01:25:19.584Z,0.57
2018-12-26T01:27:50.047Z,0.66
2018-12-26T01:30:20.575Z,0.47
2018-12-26T01:32:50.887Z,0.64
2018-12-26T01:35:21.124Z,0.62
2018-12-26T01:37:51.408Z,0.59
2018-12-26T01:40:21.565Z,0.46
2018-12-26T01:42:51.811Z,0.51
2018-12-26T01:45:22.152Z,0.56
2018-12-26T01:47:52.598Z,0.53
2018-12-26T01:50:23.006Z,0.63
2018-12-26T01:52:53.229Z,0.66
2018-12-26T01:55:23.568Z,0.60
2018-12-26T01:57:54.379Z,0.57
2018-12-26T02:00:25.013Z,0.57
2018-12-26T02:02:56.109Z,0.47
2018-12-26T02:05:28.090Z,0.49
2018-12-26T02:07:58.368Z,0.31
2018-12-26T02:10:33.358Z,0.40
2018-12-26T02:13:04.223Z,0.28
2018-12-26T02:15:34.837Z,0.28
2018-12-26T02:18:05.088Z,0.32
2018-12-26T02:20:35.429Z,0.35
2018-12-26T02:23:05.639Z,0.33
2018-12-26T02:25:35.932Z,0.38
2018-12-26T02:28:06.050Z,0.39
2018-12-26T02:30:36.253Z,0.37
2018-12-26T02:33:08.984Z,0.28
2018-12-26T02:35:42.632Z,0.17
2018-12-26T02:38:13.103Z,0.28
2018-12-26T02:40:43.846Z,0.23
2018-12-26T02:43:13.965Z,0.31
2018-12-26T02:45:44.390Z,0.36
2018-12-26T02:48:14.793Z,0.32
2018-12-26T02:50:45.094Z,0.16
2018-12-26T02:53:15.696Z,0.26
2018-12-26T02:55:45.904Z,0.25
2018-12-26T02:58:16.135Z,0.31
2018-12-26T03:00:46.290Z,0.28
2018-12-26T03:03:16.476Z,0.16
2018-12-26T03:05:46.700Z,0.22
2018-12-26T03:08:16.822Z,0.14
2018-12-26T03:10:47.133Z,0.03
2018-12-26T03:13:17.476Z,0.02
2018-12-26T03:15:47.718Z,0.21
2018-12-26T03:18:18.154Z,0.25
2018-12-26T03:20:48.637Z,0.29
2018-12-26T03:23:18.756Z,0.27
2018-12-26T03:25:49.020Z,0.28
2018-12-26T03:28:19.404Z,0.12
2018-12-26T03:30:49.686Z,0.16
2018-12-26T03:33:20.778Z,-0.10
2018-12-26T03:35:51.018Z,0.00
2018-12-26T03:38:21.283Z,0.11
2018-12-26T03:40:51.542Z,0.16
2018-12-26T03:43:22.147Z,0.19
2018-12-26T03:45:52.991Z,0.14
2018-12-26T03:48:23.528Z,0.13
2018-12-26T03:50:53.966Z,0.14
2018-12-26T03:53:24.172Z,0.23
2018-12-26T03:55:54.323Z,0.17
2018-12-26T03:58:27.421Z,0.13
2018-12-26T04:00:57.842Z,0.15
2018-12-26T04:03:28.004Z,0.06
2018-12-26T04:05:58.160Z,-0.05
2018-12-26T04:08:28.483Z,0.12
2018-12-26T04:10:59.603Z,0.15
2018-12-26T04:13:29.869Z,0.03
2018-12-26T04:16:00.031Z,0.00
2018-12-26T04:18:32.752Z,0.12
2018-12-26T04:21:03.112Z,0.20
2018-12-26T04:23:33.439Z,0.04
2018-12-26T04:26:03.926Z,0.04
2018-12-26T04:28:35.153Z,0.02
2018-12-26T04:31:05.296Z,0.02
2018-12-26T04:33:35.498Z,0.08
2018-12-26T04:36:05.675Z,-0.02
2018-12-26T04:38:35.850Z,0.09
2018-12-26T04:41:07.661Z,0.11
2018-12-26T04:43:37.947Z,0.08
2018-12-26T04:46:08.264Z,0.04
2018-12-26T04:48:38.522Z,0.13
2018-12-26T04:51:08.763Z,0.12
2018-12-26T04:53:38.891Z,0.01
2018-12-26T04:56:09.256Z,0.02
2018-12-26T04:58:39.514Z,0.15
2018-12-26T05:01:09.661Z,0.13
2018-12-26T05:03:42.393Z,0.15
2018-12-26T05:06:12.711Z,0.13
2018-12-26T05:08:42.924Z,0.17
2018-12-26T05:11:13.084Z,0.13
2018-12-26T05:13:43.281Z,0.08
2018-12-26T05:16:13.378Z,0.00
2018-12-26T05:18:44.480Z,-0.03
2018-12-26T05:21:14.689Z,0.04
2018-12-26T05:23:45.005Z,0.11
2018-12-26T05:26:15.387Z,0.02
2018-12-26T05:28:46.004Z,0.08
2018-12-26T05:31:16.381Z,-0.17
2018-12-26T05:33:46.857Z,-0.32
2018-12-26T05:36:16.968Z,-0.23
2018-12-26T05:38:47.094Z,-0.30
2018-12-26T05:41:20.619Z,-0.36
2018-12-26T05:43:51.186Z,-0.29
2018-12-26T05:46:21.632Z,-0.45
2018-12-26T05:48:51.899Z,-0.30
2018-12-26T05:51:22.298Z,-0.31
2018-12-26T05:53:52.524Z,-0.23
2018-12-26T05:56:22.755Z,-0.25
2018-12-26T05:58:53.341Z,-0.25
2018-12-26T06:01:23.751Z,-0.45
2018-12-26T06:03:53.888Z,-0.52
2018-12-26T06:06:24.196Z,-0.57
2018-12-26T06:08:54.428Z,-0.69
2018-12-26T06:11:24.561Z,-0.53
2018-12-26T06:13:54.741Z,-0.38
2018-12-26T06:16:25.115Z,-0.35
2018-12-26T06:18:55.381Z,-0.35
2018-12-26T06:21:25.553Z,-0.43
2018-12-26T06:23:55.674Z,-0.40
2018-12-26T06:26:25.885Z,-0.55
2018-12-26T06:28:56.057Z,-0.45
2018-12-26T06:31:26.361Z,-0.53
2018-12-26T06:33:56.500Z,-0.45
2018-12-26T06:36:26.641Z,-0.40
2018-12-26T06:38:57.063Z,-0.48
2018-12-26T06:41:27.295Z,-0.55
2018-12-26T06:43:57.534Z,-0.46
2018-12-26T06:46:27.815Z,-0.45
2018-12-26T06:48:58.293Z,-0.40
2018-12-26T06:51:28.753Z,-0.56
2018-12-26T06:53:58.907Z,-0.48
2018-12-26T06:56:29.274Z,-0.49
2018-12-26T06:59:01.478Z,-0.64
2018-12-26T07:01:31.760Z,-0.49
2018-12-26T07:04:02.855Z,-0.60
2018-12-26T07:06:33.018Z,-0.55
2018-12-26T07:09:03.839Z,-0.49
2018-12-26T07:11:34.125Z,-0.46
2018-12-26T07:14:04.479Z,-0.52
2018-12-26T07:16:34.831Z,-0.50
2018-12-26T07:19:05.087Z,-0.73
2018-12-26T07:21:37.832Z,-0.69
2018-12-26T07:24:08.206Z,-0.53
2018-12-26T07:26:38.383Z,-0.57
2018-12-26T07:29:08.525Z,-0.61
2018-12-26T07:31:38.784Z,-0.49
2018-12-26T07:34:08.980Z,-0.44
2018-12-26T07:36:39.410Z,-0.35
2018-12-26T07:39:09.534Z,-0.41
2018-12-26T07:41:39.912Z,-0.41
2018-12-26T07:44:10.103Z,-0.53
2018-12-26T07:46:40.953Z,-0.48
2018-12-26T07:49:11.311Z,-0.57
2018-12-26T07:51:42.236Z,-0.52
2018-12-26T07:54:12.847Z,-0.58
2018-12-26T07:56:43.397Z,-0.46
2018-12-26T07:59:13.964Z,-0.46
2018-12-26T08:01:44.811Z,-0.31
2018-12-26T08:04:16.929Z,-0.28
2018-12-26T08:06:48.350Z,-0.37
2018-12-26T08:09:18.880Z,-0.44
2018-12-26T08:11:49.301Z,-0.53
2018-12-26T08:14:20.861Z,-0.33
2018-12-26T08:16:53.309Z,-0.23
2018-12-26T08:19:23.548Z,-0.20
2018-12-26T08:21:54.396Z,-0.37
2018-12-26T08:24:25.001Z,-0.47
2018-12-26T08:26:55.607Z,-0.68
2018-12-26T08:29:26.370Z,-0.51
2018-12-26T08:31:56.983Z,-0.31
2018-12-26T08:34:27.549Z,-0.26
2018-12-26T08:36:57.735Z,-0.35
2018-12-26T08:39:28.027Z,-0.20
2018-12-26T08:41:58.281Z,-0.55
2018-12-26T08:44:28.439Z,-0.36
2018-12-26T08:46:58.966Z,-0.30
2018-12-26T08:49:29.406Z,-0.17
2018-12-26T08:51:59.896Z,-0.17
2018-12-26T08:54:30.368Z,-0.24
2018-12-26T08:57:00.944Z,-0.31
2018-12-26T08:59:31.331Z,-0.22
2018-12-26T09:02:01.599Z,-0.15
2018-12-26T09:04:31.961Z,-0.06
2018-12-26T09:07:02.463Z,0.00
2018-12-26T09:09:32.829Z,-0.16
2018-12-26T09:12:03.595Z,-0.06
2018-12-26T09:14:34.096Z,0.00
2018-12-26T09:17:04.476Z,0.02
2018-12-26T09:19:35.449Z,0.16
2018-12-26T09:22:05.880Z,-0.17
2018-12-26T09:24:36.324Z,0.08
2018-12-26T09:27:10.175Z,0.16
2018-12-26T09:29:40.443Z,0.30
2018-12-26T09:32:10.591Z,0.36
2018-12-26T09:34:40.880Z,0.35
2018-12-26T09:37:11.119Z,0.35
2018-12-26T09:39:41.380Z,0.41
2018-12-26T09:42:11.635Z,0.32
2018-12-26T09:44:41.933Z,0.37
2018-12-26T09:47:12.435Z,0.38
2018-12-26T09:49:42.913Z,0.42
2018-12-26T09:52:13.459Z,0.28
2018-12-26T09:54:43.747Z,0.27
2018-12-26T09:57:14.241Z,0.46
2018-12-26T09:59:44.680Z,0.10
2018-12-26T10:02:15.159Z,0.10
2018-12-26T10:04:45.395Z,-0.05
2018-12-26T10:07:15.605Z,0.36
2018-12-26T10:09:45.910Z,0.54
2018-12-26T10:12:16.128Z,0.62
2018-12-26T10:14:46.743Z,0.44
2018-12-26T10:17:18.427Z,0.09
2018-12-26T10:19:50.264Z,0.63
2018-12-26T10:22:20.691Z,0.55
2018-12-26T10:24:51.155Z,0.62
2018-12-26T10:27:21.594Z,0.77
2018-12-26T10:29:52.043Z,0.63
2018-12-26T10:32:22.250Z,0.53
2018-12-26T10:34:52.451Z,0.34
2018-12-26T10:37:22.669Z,0.32
2018-12-26T10:39:53.049Z,0.39
2018-12-26T10:42:23.489Z,0.21
2018-12-26T10:44:54.009Z,0.17
2018-12-26T10:47:24.320Z,0.23
2018-12-26T10:49:54.675Z,0.06
2018-12-26T10:52:24.949Z,0.12
2018-12-26T10:54:55.234Z,0.08
2018-12-26T10:57:25.591Z,0.18
2018-12-26T10:59:55.758Z,0.09
2018-12-26T11:02:26.263Z,0.19
2018-12-26T11:04:56.674Z,0.20
2018-12-26T11:07:27.170Z,0.27
2018-12-26T11:09:57.370Z,0.37
2018-12-26T11:12:27.595Z,0.39
2018-12-26T11:14:57.912Z,0.23
2018-12-26T11:17:28.098Z,0.44
2018-12-26T11:19:58.948Z,0.76
2018-12-26T11:22:29.450Z,0.92
2018-12-26T11:25:00.076Z,1.04
2018-12-26T11:27:30.435Z,1.32
2018-12-26T11:30:00.766Z,1.35
2018-12-26T11:32:31.020Z,1.23
2018-12-26T11:35:01.340Z,1.39
2018-12-26T11:37:31.707Z,1.14
2018-12-26T11:40:02.470Z,1.22
2018-12-26T11:42:32.976Z,1.04
2018-12-26T11:45:03.589Z,1.02
2018-12-26T11:47:34.104Z,0.89
2018-12-26T11:50:05.865Z,0.75
2018-12-26T11:52:36.376Z,0.73
2018-12-26T11:55:07.454Z,0.66
2018-12-26T11:57:37.851Z,0.69
2018-12-26T12:00:08.599Z,1.07
2018-12-26T12:02:39.355Z,1.21
2018-12-26T12:05:09.605Z,1.47
2018-12-26T12:07:40.101Z,1.64
2018-12-26T12:10:10.943Z,1.78
2018-12-26T12:12:41.540Z,2.10
2018-12-26T12:15:12.188Z,2.29
2018-12-26T12:17:42.873Z,2.59
2018-12-26T12:20:13.615Z,2.58
2018-12-26T12:22:44.472Z,2.71
2018-12-26T12:25:15.055Z,2.93
2018-12-26T12:27:45.465Z,3.10
2018-12-26T12:30:16.341Z,2.85
2018-12-26T12:32:46.750Z,2.84
2018-12-26T12:35:17.595Z,2.58
2018-12-26T12:37:48.050Z,2.33
2018-12-26T12:40:18.237Z,2.75
2018-12-26T12:42:48.728Z,2.49
2018-12-26T12:45:19.207Z,3.02
2018-12-26T12:47:49.470Z,3.62
2018-12-26T12:50:21.365Z,3.72
2018-12-26T12:52:51.829Z,3.63
2018-12-26T12:55:22.215Z,3.66
2018-12-26T12:57:53.518Z,4.17
2018-12-26T13:00:23.788Z,3.92
2018-12-26T13:03:00.331Z,5.08
2018-12-26T13:05:26.726Z,5.22
2018-12-26T13:07:56.959Z,5.51
2018-12-26T13:10:27.161Z,5.40
2018-12-26T13:12:57.413Z,4.87
2018-12-26T13:15:27.876Z,5.02
2018-12-26T13:18:00.406Z,4.88
2018-12-26T13:20:30.789Z,4.50
2018-12-26T13:23:01.134Z,4.27
2018-12-26T13:25:31.459Z,4.14
2018-12-26T13:28:01.664Z,3.55
2018-12-26T13:30:32.207Z,4.06
2018-12-26T13:33:02.716Z,4.56
2018-12-26T13:35:33.092Z,4.42
2018-12-26T13:38:03.433Z,4.21
2018-12-26T13:40:33.917Z,4.00
2018-12-26T13:43:04.403Z,4.07
2018-12-26T13:45:34.670Z,4.51
2018-12-26T13:48:05.030Z,4.62
2018-12-26T13:50:36.398Z,3.45
2018-12-26T13:53:09.889Z,2.84
2018-12-26T13:55:40.329Z,2.98
2018-12-26T13:58:10.596Z,2.93
2018-12-26T14:00:41.014Z,2.82
2018-12-26T14:03:11.244Z,2.71
2018-12-26T14:05:41.534Z,2.46
2018-12-26T14:08:12.138Z,2.27
2018-12-26T14:10:42.876Z,2.26
2018-12-26T14:13:13.177Z,2.15
2018-12-26T14:15:43.577Z,1.99
2018-12-26T14:18:14.280Z,1.65
2018-12-26T14:20:44.618Z,1.72
2018-12-26T14:23:15.138Z,1.36
2018-12-26T14:25:45.570Z,1.48
2018-12-26T14:28:15.855Z,1.43
2018-12-26T14:30:46.288Z,1.35
2018-12-26T14:33:16.679Z,1.14
2018-12-26T14:35:59.246Z,1.10
2018-12-26T14:38:29.621Z,1.12
2018-12-26T14:40:59.900Z,1.14
2018-12-26T14:43:30.518Z,1.08
2018-12-26T14:46:00.981Z,1.01
2018-12-26T14:48:31.340Z,0.88
2018-12-26T14:51:01.666Z,0.92
2018-12-26T14:53:31.898Z,0.72
2018-12-26T14:56:02.732Z,0.73
2018-12-26T14:58:32.876Z,0.59
2018-12-26T15:01:03.555Z,0.47
2018-12-26T15:03:34.134Z,0.55
2018-12-26T15:06:04.502Z,0.49
2018-12-26T15:08:36.740Z,0.40
2018-12-26T15:11:06.967Z,0.36
2018-12-26T15:13:37.330Z,0.27
2018-12-26T15:16:07.645Z,0.23
2018-12-26T15:18:38.374Z,0.11
2018-12-26T15:21:08.776Z,-0.02
2018-12-26T15:23:39.110Z,-0.02
2018-12-26T15:26:09.386Z,-0.13
2018-12-26T15:28:39.878Z,-0.30
2018-12-26T15:31:10.372Z,-0.22
2018-12-26T15:33:40.573Z,-0.29
2018-12-26T15:36:11.845Z,-0.40
2018-12-26T15:38:43.956Z,-0.49
2018-12-26T15:41:14.228Z,-0.50
2018-12-26T15:43:44.358Z,-0.58
2018-12-26T15:46:14.664Z,-0.62
2018-12-26T15:48:44.998Z,-0.66
2018-12-26T15:51:15.258Z,-0.66
2018-12-26T15:53:45.708Z,-0.74
2018-12-26T15:56:16.201Z,-0.77
2018-12-26T15:58:46.540Z,-0.82
2018-12-26T16:01:17.879Z,-0.85
2018-12-26T16:03:48.431Z,-0.94
2018-12-26T16:06:19.338Z,-0.99
2018-12-26T16:08:49.691Z,-1.00
2018-12-26T16:11:20.477Z,-1.03
2018-12-26T16:13:50.696Z,-1.05
2018-12-26T16:16:21.104Z,-1.10
2018-12-26T16:18:51.791Z,-1.20
2018-12-26T16:21:22.275Z,-1.20
2018-12-26T16:23:52.475Z,-1.18
2018-12-26T16:26:22.683Z,-1.21
2018-12-26T16:28:53.024Z,-1.19
2018-12-26T16:31:23.605Z,-1.21
2018-12-26T16:33:54.111Z,-1.28
2018-12-26T16:36:24.355Z,-1.30
2018-12-26T16:38:54.746Z,-1.40
2018-12-26T16:41:25.059Z,-1.51
2018-12-26T16:43:55.555Z,-1.44
2018-12-26T16:46:26.136Z,-1.42
2018-12-26T16:48:56.468Z,-1.49
2018-12-26T16:51:26.779Z,-1.57
2018-12-26T16:53:57.613Z,-1.59
2018-12-26T16:56:27.901Z,-1.61
2018-12-26T16:58:58.192Z,-1.60
2018-12-26T17:01:28.861Z,-1.67
2018-12-26T17:03:59.515Z,-1.73
2018-12-26T17:06:32.819Z,-1.79
2018-12-26T17:09:03.740Z,-1.83
2018-12-26T17:11:33.980Z,-1.77
2018-12-26T17:14:04.415Z,-1.80
2018-12-26T17:16:34.745Z,-1.81
2018-12-26T17:19:05.362Z,-1.79
2018-12-26T17:21:35.606Z,-1.78
2018-12-26T17:24:06.130Z,-1.74
2018-12-26T17:26:36.303Z,-1.78
2018-12-26T17:29:06.604Z,-1.82
2018-12-26T17:31:37.064Z,-1.84
2018-12-26T17:34:07.671Z,-1.84
2018-12-26T17:36:37.908Z,-1.89
2018-12-26T17:39:09.140Z,-1.98
2018-12-26T17:41:39.494Z,-2.02
2018-12-26T17:44:09.900Z,-2.09
2018-12-26T17:46:40.474Z,-2.17
2018-12-26T17:49:10.919Z,-2.32
2018-12-26T17:51:42.273Z,-2.41
2018-12-26T17:54:39.528Z,-2.30
2018-12-26T17:57:22.813Z,-2.28
2018-12-26T18:00:05.261Z,-2.29
2018-12-26T18:02:41.106Z,-2.38
2018-12-26T18:05:11.411Z,-2.47
2018-12-26T18:07:41.891Z,-2.54
2018-12-26T18:10:12.410Z,-2.45
2018-12-26T18:12:43.055Z,-2.43
2018-12-26T18:15:14.790Z,-2.45
2018-12-26T18:17:45.273Z,-2.43
2018-12-26T18:20:15.911Z,-2.42
2018-12-26T18:22:46.561Z,-2.49
2018-12-26T18:25:16.841Z,-2.52
2018-12-26T18:27:47.641Z,-2.45
2018-12-26T18:30:18.277Z,-2.47
2018-12-26T18:32:48.672Z,-2.45
2018-12-26T18:35:21.446Z,-2.44
2018-12-26T18:37:51.749Z,-2.49
2018-12-26T18:40:22.113Z,-2.53
2018-12-26T18:42:52.821Z,-2.56
2018-12-26T18:45:23.371Z,-2.58
2018-12-26T18:47:53.886Z,-2.58
2018-12-26T18:50:24.512Z,-2.59
2018-12-26T18:52:54.922Z,-2.58
2018-12-26T18:55:25.355Z,-2.60
2018-12-26T18:57:55.656Z,-2.60
2018-12-26T19:00:26.495Z,-2.63
2018-12-26T19:02:58.011Z,-2.67
2018-12-26T19:05:28.465Z,-2.70
2018-12-26T19:07:59.157Z,-2.73
2018-12-26T19:10:29.552Z,-2.73
2018-12-26T19:13:00.197Z,-2.69
2018-12-26T19:15:30.862Z,-2.69
2018-12-26T19:18:01.796Z,-2.73
2018-12-26T19:20:32.916Z,-2.80
2018-12-26T19:23:03.360Z,-2.81
2018-12-26T19:25:34.103Z,-2.82
2018-12-26T19:28:04.472Z,-2.81
2018-12-26T19:30:35.039Z,-2.78
2018-12-26T19:33:05.533Z,-2.78
2018-12-26T19:35:36.055Z,-2.81
2018-12-26T19:38:06.465Z,-2.84
2018-12-26T19:40:36.846Z,-2.86
2018-12-26T19:43:07.662Z,-2.87
2018-12-26T19:45:40.132Z,-2.82
2018-12-26T19:48:10.193Z,-2.81
2018-12-26T19:50:40.527Z,-2.84
2018-12-26T19:53:18.126Z,-2.87
2018-12-26T19:55:49.046Z,-2.90
2018-12-26T19:58:20.656Z,-2.93
2018-12-26T20:00:51.068Z,-2.89
2018-12-26T20:03:21.606Z,-2.91
2018-12-26T20:05:52.073Z,-2.93
2018-12-26T20:08:22.387Z,-2.93
2018-12-26T20:10:52.786Z,-2.95
2018-12-26T20:13:23.496Z,-2.95
2018-12-26T20:15:54.216Z,-2.92
2018-12-26T20:18:24.714Z,-2.90
2018-12-26T20:20:55.276Z,-2.91
2018-12-26T20:23:25.604Z,-3.03
2018-12-26T20:25:57.669Z,-3.06
2018-12-26T20:28:28.427Z,-3.06
2018-12-26T20:30:59.270Z,-3.09
2018-12-26T20:33:30.236Z,-3.07
2018-12-26T20:36:00.582Z,-3.01
2018-12-26T20:38:31.845Z,-3.03
2018-12-26T20:41:02.624Z,-3.07
2018-12-26T20:43:33.170Z,-3.11
2018-12-26T20:46:03.707Z,-3.14
2018-12-26T20:48:35.507Z,-3.15
2018-12-26T20:51:06.187Z,-3.17
2018-12-26T20:53:36.706Z,-3.17
2018-12-26T20:56:07.096Z,-3.18
2018-12-26T20:58:37.719Z,-3.17
2018-12-26T21:01:08.493Z,-3.18
2018-12-26T21:03:39.113Z,-3.20
2018-12-26T21:06:09.542Z,-3.18
2018-12-26T21:08:40.205Z,-3.20
2018-12-26T21:11:11.766Z,-3.25
2018-12-26T21:13:43.776Z,-3.26
2018-12-26T21:16:14.449Z,-3.28
2018-12-26T21:18:45.435Z,-3.28
2018-12-26T21:21:16.292Z,-3.31
2018-12-26T21:23:48.177Z,-3.29
2018-12-26T21:26:19.268Z,-3.30
2018-12-26T21:28:50.356Z,-3.31
2018-12-26T21:31:21.150Z,-3.31
2018-12-26T21:33:52.119Z,-3.43
2018-12-26T21:36:22.797Z,-3.43
2018-12-26T21:38:53.161Z,-3.38
2018-12-26T21:41:23.800Z,-3.40
2018-12-26T21:43:54.191Z,-3.38
2018-12-26T21:46:24.659Z,-3.31
2018-12-26T21:48:55.262Z,-3.32
2018-12-26T21:51:26.677Z,-3.31
2018-12-26T21:53:57.085Z,-3.34
2018-12-26T21:56:27.417Z,-3.38
2018-12-26T21:58:58.022Z,-3.49
2018-12-26T22:01:28.492Z,-3.49
2018-12-26T22:03:58.656Z,-3.47
2018-12-26T22:06:28.935Z,-3.43
2018-12-26T22:09:01.652Z,-3.41
2018-12-26T22:11:32.982Z,-3.44
2018-12-26T22:14:03.305Z,-3.42
2018-12-26T22:16:34.826Z,-3.47
2018-12-26T22:19:05.382Z,-3.49
2018-12-26T22:21:35.896Z,-3.45
2018-12-26T22:24:06.054Z,-3.43
2018-12-26T22:26:43.230Z,-3.46
2018-12-26T22:29:08.513Z,-3.50
2018-12-26T22:31:39.855Z,-3.47
2018-12-26T22:34:10.182Z,-3.45
2018-12-26T22:36:40.649Z,-3.52
2018-12-26T22:39:11.161Z,-3.54
2018-12-26T22:41:41.563Z,-3.51
2018-12-26T22:44:12.134Z,-3.48
2018-12-26T22:46:42.960Z,-3.50
2018-12-26T22:49:13.154Z,-3.52
2018-12-26T22:51:43.357Z,-3.52
2018-12-26T22:54:13.656Z,-3.54
2018-12-26T22:56:44.242Z,-3.61
2018-12-26T22:59:14.894Z,-3.68
2018-12-26T23:01:45.265Z,-3.74
2018-12-26T23:04:15.494Z,-3.73
2018-12-26T23:06:45.849Z,-3.74
2018-12-26T23:09:16.322Z,-3.70
2018-12-26T23:11:46.682Z,-3.71
2018-12-26T23:14:16.907Z,-3.69
2018-12-26T23:16:47.291Z,-3.76
2018-12-26T23:19:17.694Z,-3.80
2018-12-26T23:21:48.269Z,-3.82
2018-12-26T23:24:19.598Z,-3.80
2018-12-26T23:26:50.158Z,-3.80
2018-12-26T23:29:20.651Z,-3.81
2018-12-26T23:31:51.303Z,-3.79
2018-12-26T23:34:21.522Z,-3.79
2018-12-26T23:36:51.761Z,-3.82
2018-12-26T23:39:21.933Z,-3.84
2018-12-26T23:41:52.117Z,-3.88
2018-12-26T23:44:22.433Z,-3.93
2018-12-26T23:46:52.634Z,-3.90
2018-12-26T23:49:22.958Z,-3.95
2018-12-26T23:51:53.194Z,-3.90
2018-12-26T23:54:24.029Z,-3.92
2018-12-26T23:56:54.490Z,-3.89
2018-12-26T23:59:24.761Z,-3.88
